sensor_id;sensor_type;location;lat;lon;timestamp;pressure;altitude;pressure_sealevel;temperature;humidity
69411;BME280;56604;48.652;9.194;2024-03-22T00:00:04;96920.88;;;9.18;94.22
69411;BME280;56604;48.652;9.194;2024-03-22T00:02:30;96926.88;;;9.07;95.63
69411;BME280;56604;48.652;9.194;2024-03-22T00:04:55;96920.03;;;9.06;96.11
69411;BME280;56604;48.652;9.194;2024-03-22T00:07:22;96918.31;;;8.99;95.64
69411;BME280;56604;48.652;9.194;2024-03-22T00:09:47;96915.91;;;8.98;95.90
69411;BME280;56604;48.652;9.194;2024-03-22T00:12:12;96908.22;;;8.96;95.71
69411;BME280;56604;48.652;9.194;2024-03-22T00:14:38;96898.19;;;8.93;95.88
69411;BME280;56604;48.652;9.194;2024-03-22T00:17:03;96901.75;;;8.99;94.97
69411;BME280;56604;48.652;9.194;2024-03-22T00:19:28;96899.81;;;8.94;95.56
69411;BME280;56604;48.652;9.194;2024-03-22T00:21:54;96906.19;;;8.98;95.81
69411;BME280;56604;48.652;9.194;2024-03-22T00:24:19;96898.91;;;9.00;95.55
69411;BME280;56604;48.652;9.194;2024-03-22T00:26:44;96900.38;;;8.96;95.84
69411;BME280;56604;48.652;9.194;2024-03-22T00:29:09;96899.88;;;8.88;96.41
69411;BME280;56604;48.652;9.194;2024-03-22T00:31:35;96903.97;;;8.84;96.93
69411;BME280;56604;48.652;9.194;2024-03-22T00:34:00;96898.25;;;8.75;97.23
69411;BME280;56604;48.652;9.194;2024-03-22T00:36:25;96894.03;;;8.74;97.23
69411;BME280;56604;48.652;9.194;2024-03-22T00:38:51;96896.06;;;8.72;97.13
69411;BME280;56604;48.652;9.194;2024-03-22T00:41:16;96891.41;;;8.74;98.34
69411;BME280;56604;48.652;9.194;2024-03-22T00:43:41;96888.84;;;8.67;98.00
69411;BME280;56604;48.652;9.194;2024-03-22T00:46:07;96885.44;;;8.67;97.38
69411;BME280;56604;48.652;9.194;2024-03-22T00:48:32;96883.25;;;8.64;97.27
69411;BME280;56604;48.652;9.194;2024-03-22T00:50:58;96878.00;;;8.64;96.93
69411;BME280;56604;48.652;9.194;2024-03-22T00:53:23;96876.28;;;8.58;97.24
69411;BME280;56604;48.652;9.194;2024-03-22T00:55:48;96876.88;;;8.60;97.98
69411;BME280;56604;48.652;9.194;2024-03-22T00:58:18;96869.84;;;8.53;97.33
69411;BME280;56604;48.652;9.194;2024-03-22T01:00:44;96868.25;;;8.52;98.52
69411;BME280;56604;48.652;9.194;2024-03-22T01:03:10;96861.56;;;8.56;97.79
69411;BME280;56604;48.652;9.194;2024-03-22T01:05:35;96853.13;;;8.54;98.07
69411;BME280;56604;48.652;9.194;2024-03-22T01:08:01;96861.19;;;8.53;98.17
69411;BME280;56604;48.652;9.194;2024-03-22T01:10:26;96848.91;;;8.53;97.83
69411;BME280;56604;48.652;9.194;2024-03-22T01:12:52;96848.69;;;8.55;98.32
69411;BME280;56604;48.652;9.194;2024-03-22T01:15:17;96846.66;;;8.57;97.97
69411;BME280;56604;48.652;9.194;2024-03-22T01:17:43;96854.28;;;8.59;97.71
69411;BME280;56604;48.652;9.194;2024-03-22T01:20:09;96837.41;;;8.54;98.04
69411;BME280;56604;48.652;9.194;2024-03-22T01:22:34;96839.09;;;8.49;98.35
69411;BME280;56604;48.652;9.194;2024-03-22T01:24:59;96826.88;;;8.43;99.66
69411;BME280;56604;48.652;9.194;2024-03-22T01:27:25;96828.38;;;8.32;100.00
69411;BME280;56604;48.652;9.194;2024-03-22T01:29:50;96836.97;;;8.21;99.90
69411;BME280;56604;48.652;9.194;2024-03-22T01:32:15;96831.56;;;8.16;100.00
69411;BME280;56604;48.652;9.194;2024-03-22T01:34:40;96832.75;;;8.20;100.00
69411;BME280;56604;48.652;9.194;2024-03-22T01:37:06;96827.81;;;8.11;100.00
69411;BME280;56604;48.652;9.194;2024-03-22T01:39:31;96815.72;;;8.10;100.00
69411;BME280;56604;48.652;9.194;2024-03-22T01:41:56;96819.94;;;8.11;100.00
69411;BME280;56604;48.652;9.194;2024-03-22T01:44:29;96812.09;;;8.11;100.00
69411;BME280;56604;48.652;9.194;2024-03-22T01:46:56;96817.34;;;8.11;100.00
69411;BME280;56604;48.652;9.194;2024-03-22T01:49:22;96818.56;;;8.09;100.00
69411;BME280;56604;48.652;9.194;2024-03-22T01:51:49;96811.94;;;8.06;100.00
69411;BME280;56604;48.652;9.194;2024-03-22T01:54:16;96815.59;;;8.05;100.00
69411;BME280;56604;48.652;9.194;2024-03-22T01:56:42;96809.53;;;8.05;100.00
69411;BME280;56604;48.652;9.194;2024-03-22T01:59:07;96808.59;;;7.99;100.00
69411;BME280;56604;48.652;9.194;2024-03-22T02:01:33;96812.44;;;7.97;100.00
69411;BME280;56604;48.652;9.194;2024-03-22T02:04:00;96808.59;;;7.99;100.00
69411;BME280;56604;48.652;9.194;2024-03-22T02:06:26;96801.41;;;7.95;100.00
69411;BME280;56604;48.652;9.194;2024-03-22T02:08:51;96799.00;;;7.93;100.00
69411;BME280;56604;48.652;9.194;2024-03-22T02:11:16;96804.81;;;7.95;100.00
69411;BME280;56604;48.652;9.194;2024-03-22T02:13:42;96796.38;;;7.93;100.00
69411;BME280;56604;48.652;9.194;2024-03-22T02:16:10;96797.41;;;7.92;100.00
69411;BME280;56604;48.652;9.194;2024-03-22T02:18:35;96788.75;;;7.92;100.00
69411;BME280;56604;48.652;9.194;2024-03-22T02:21:01;96787.38;;;7.89;100.00
69411;BME280;56604;48.652;9.194;2024-03-22T02:23:33;96787.81;;;7.86;100.00
69411;BME280;56604;48.652;9.194;2024-03-22T02:25:59;96784.16;;;7.87;100.00
69411;BME280;56604;48.652;9.194;2024-03-22T02:28:25;96784.94;;;7.87;100.00
69411;BME280;56604;48.652;9.194;2024-03-22T02:30:50;96784.75;;;7.89;100.00
69411;BME280;56604;48.652;9.194;2024-03-22T02:33:15;96777.69;;;7.89;100.00
69411;BME280;56604;48.652;9.194;2024-03-22T02:35:41;96783.13;;;7.88;100.00
69411;BME280;56604;48.652;9.194;2024-03-22T02:38:06;96778.34;;;7.85;100.00
69411;BME280;56604;48.652;9.194;2024-03-22T02:40:32;96777.03;;;7.76;100.00
69411;BME280;56604;48.652;9.194;2024-03-22T02:42:59;96777.91;;;7.70;100.00
69411;BME280;56604;48.652;9.194;2024-03-22T02:45:24;96781.16;;;7.65;100.00
69411;BME280;56604;48.652;9.194;2024-03-22T02:47:50;96780.34;;;7.64;100.00
69411;BME280;56604;48.652;9.194;2024-03-22T02:50:15;96775.13;;;7.64;100.00
69411;BME280;56604;48.652;9.194;2024-03-22T02:52:40;96776.59;;;7.60;100.00
69411;BME280;56604;48.652;9.194;2024-03-22T02:55:06;96777.59;;;7.59;100.00
69411;BME280;56604;48.652;9.194;2024-03-22T02:57:31;96772.34;;;7.59;100.00
69411;BME280;56604;48.652;9.194;2024-03-22T02:59:57;96771.91;;;7.62;100.00
69411;BME280;56604;48.652;9.194;2024-03-22T03:02:25;96767.13;;;7.59;100.00
69411;BME280;56604;48.652;9.194;2024-03-22T03:04:51;96767.94;;;7.60;100.00
69411;BME280;56604;48.652;9.194;2024-03-22T03:07:16;96763.13;;;7.57;100.00
69411;BME280;56604;48.652;9.194;2024-03-22T03:09:41;96761.16;;;7.52;100.00
69411;BME280;56604;48.652;9.194;2024-03-22T03:12:07;96754.31;;;7.51;100.00
69411;BME280;56604;48.652;9.194;2024-03-22T03:14:32;96748.09;;;7.52;100.00
69411;BME280;56604;48.652;9.194;2024-03-22T03:16:57;96751.94;;;7.50;100.00
69411;BME280;56604;48.652;9.194;2024-03-22T03:19:23;96745.91;;;7.49;100.00
69411;BME280;56604;48.652;9.194;2024-03-22T03:21:48;96750.34;;;7.49;100.00
69411;BME280;56604;48.652;9.194;2024-03-22T03:24:13;96755.34;;;7.50;100.00
69411;BME280;56604;48.652;9.194;2024-03-22T03:26:38;96750.69;;;7.52;100.00
69411;BME280;56604;48.652;9.194;2024-03-22T03:29:05;96746.63;;;7.56;100.00
69411;BME280;56604;48.652;9.194;2024-03-22T03:31:31;96753.03;;;7.60;100.00
69411;BME280;56604;48.652;9.194;2024-03-22T03:33:57;96747.56;;;7.62;100.00
69411;BME280;56604;48.652;9.194;2024-03-22T03:36:23;96744.97;;;7.62;100.00
69411;BME280;56604;48.652;9.194;2024-03-22T03:38:48;96743.56;;;7.59;100.00
69411;BME280;56604;48.652;9.194;2024-03-22T03:41:15;96738.94;;;7.61;100.00
69411;BME280;56604;48.652;9.194;2024-03-22T03:43:40;96737.34;;;7.60;100.00
69411;BME280;56604;48.652;9.194;2024-03-22T03:46:05;96730.94;;;7.56;100.00
69411;BME280;56604;48.652;9.194;2024-03-22T03:48:31;96731.38;;;7.53;100.00
69411;BME280;56604;48.652;9.194;2024-03-22T03:50:56;96725.69;;;7.56;100.00
69411;BME280;56604;48.652;9.194;2024-03-22T03:53:24;96732.16;;;7.54;100.00
69411;BME280;56604;48.652;9.194;2024-03-22T03:55:50;96727.75;;;7.54;100.00
69411;BME280;56604;48.652;9.194;2024-03-22T03:58:15;96727.31;;;7.57;100.00
69411;BME280;56604;48.652;9.194;2024-03-22T04:00:43;96725.69;;;7.56;100.00
69411;BME280;56604;48.652;9.194;2024-03-22T04:03:08;96730.38;;;7.54;100.00
69411;BME280;56604;48.652;9.194;2024-03-22T04:05:33;96725.13;;;7.54;100.00
69411;BME280;56604;48.652;9.194;2024-03-22T04:07:59;96726.56;;;7.50;100.00
69411;BME280;56604;48.652;9.194;2024-03-22T04:10:24;96726.13;;;7.53;100.00
69411;BME280;56604;48.652;9.194;2024-03-22T04:12:49;96730.22;;;7.49;100.00
69411;BME280;56604;48.652;9.194;2024-03-22T04:15:15;96736.44;;;7.48;100.00
69411;BME280;56604;48.652;9.194;2024-03-22T04:17:40;96722.38;;;7.49;100.00
69411;BME280;56604;48.652;9.194;2024-03-22T04:20:06;96730.22;;;7.49;100.00
69411;BME280;56604;48.652;9.194;2024-03-22T04:22:33;96723.53;;;7.53;100.00
69411;BME280;56604;48.652;9.194;2024-03-22T04:24:58;96724.09;;;7.55;100.00
69411;BME280;56604;48.652;9.194;2024-03-22T04:27:23;96727.31;;;7.57;100.00
69411;BME280;56604;48.652;9.194;2024-03-22T04:29:49;96722.09;;;7.57;100.00
69411;BME280;56604;48.652;9.194;2024-03-22T04:32:14;96723.22;;;7.61;100.00
69411;BME280;56604;48.652;9.194;2024-03-22T04:34:43;96728.47;;;7.61;100.00
69411;BME280;56604;48.652;9.194;2024-03-22T04:37:08;96722.34;;;7.68;100.00
69411;BME280;56604;48.652;9.194;2024-03-22T04:39:34;96729.56;;;7.72;100.00
69411;BME280;56604;48.652;9.194;2024-03-22T04:41:59;96718.31;;;7.72;100.00
69411;BME280;56604;48.652;9.194;2024-03-22T04:44:25;96725.03;;;7.79;100.00
69411;BME280;56604;48.652;9.194;2024-03-22T04:46:50;96730.06;;;7.81;100.00
69411;BME280;56604;48.652;9.194;2024-03-22T04:49:15;96725.34;;;7.89;100.00
69411;BME280;56604;48.652;9.194;2024-03-22T04:51:41;96734.28;;;8.00;100.00
69411;BME280;56604;48.652;9.194;2024-03-22T04:54:06;96727.56;;;8.04;100.00
69411;BME280;56604;48.652;9.194;2024-03-22T04:56:33;96732.50;;;8.13;100.00
69411;BME280;56604;48.652;9.194;2024-03-22T04:58:58;96729.44;;;8.16;100.00
69411;BME280;56604;48.652;9.194;2024-03-22T05:01:23;96728.00;;;8.20;100.00
69411;BME280;56604;48.652;9.194;2024-03-22T05:03:50;96730.63;;;8.20;100.00
69411;BME280;56604;48.652;9.194;2024-03-22T05:06:15;96730.63;;;8.20;100.00
69411;BME280;56604;48.652;9.194;2024-03-22T05:08:41;96730.63;;;8.20;100.00
69411;BME280;56604;48.652;9.194;2024-03-22T05:11:07;96735.31;;;8.29;99.94
69411;BME280;56604;48.652;9.194;2024-03-22T05:13:32;96737.13;;;8.29;99.74
69411;BME280;56604;48.652;9.194;2024-03-22T05:15:58;96732.09;;;8.27;99.30
69411;BME280;56604;48.652;9.194;2024-03-22T05:18:23;96729.84;;;8.31;100.00
69411;BME280;56604;48.652;9.194;2024-03-22T05:20:48;96724.50;;;8.26;100.00
69411;BME280;56604;48.652;9.194;2024-03-22T05:23:14;96718.72;;;8.36;100.00
69411;BME280;56604;48.652;9.194;2024-03-22T05:25:41;96718.38;;;8.32;99.49
69411;BME280;56604;48.652;9.194;2024-03-22T05:28:07;96714.72;;;8.33;99.80
69411;BME280;56604;48.652;9.194;2024-03-22T05:30:32;96714.84;;;8.38;99.63
69411;BME280;56604;48.652;9.194;2024-03-22T05:32:58;96714.66;;;8.40;99.55
69411;BME280;56604;48.652;9.194;2024-03-22T05:35:23;96713.19;;;8.44;99.59
69411;BME280;56604;48.652;9.194;2024-03-22T05:37:48;96709.31;;;8.46;98.57
69411;BME280;56604;48.652;9.194;2024-03-22T05:40:15;96713.31;;;8.49;99.06
69411;BME280;56604;48.652;9.194;2024-03-22T05:42:40;96711.41;;;8.68;98.04
69411;BME280;56604;48.652;9.194;2024-03-22T05:45:06;96712.59;;;8.95;97.23
69411;BME280;56604;48.652;9.194;2024-03-22T05:47:31;96713.66;;;9.18;95.30
69411;BME280;56604;48.652;9.194;2024-03-22T05:49:58;96708.41;;;9.30;94.53
69411;BME280;56604;48.652;9.194;2024-03-22T05:52:23;96699.84;;;9.46;93.25
69411;BME280;56604;48.652;9.194;2024-03-22T05:54:48;96701.22;;;9.49;92.98
69411;BME280;56604;48.652;9.194;2024-03-22T05:57:14;96702.00;;;9.49;91.90
69411;BME280;56604;48.652;9.194;2024-03-22T05:59:39;96695.16;;;9.60;91.63
69411;BME280;56604;48.652;9.194;2024-03-22T06:02:05;96694.81;;;9.44;92.37
69411;BME280;56604;48.652;9.194;2024-03-22T06:04:30;96689.34;;;9.46;91.37
69411;BME280;56604;48.652;9.194;2024-03-22T06:06:55;96690.56;;;9.55;91.87
69411;BME280;56604;48.652;9.194;2024-03-22T06:09:21;96683.41;;;9.51;92.51
69411;BME280;56604;48.652;9.194;2024-03-22T06:11:59;96680.63;;;9.69;90.78
69411;BME280;56604;48.652;9.194;2024-03-22T06:14:24;96678.28;;;9.84;89.60
69411;BME280;56604;48.652;9.194;2024-03-22T06:16:49;96675.28;;;10.33;89.84
69411;BME280;56604;48.652;9.194;2024-03-22T06:19:14;96677.16;;;10.66;86.61
69411;BME280;56604;48.652;9.194;2024-03-22T06:21:41;96666.31;;;11.13;84.90
69411;BME280;56604;48.652;9.194;2024-03-22T06:24:06;96672.69;;;11.17;83.34
69411;BME280;56604;48.652;9.194;2024-03-22T06:26:32;96675.88;;;11.02;83.39
69411;BME280;56604;48.652;9.194;2024-03-22T06:28:57;96680.09;;;11.20;83.12
69411;BME280;56604;48.652;9.194;2024-03-22T06:31:22;96669.13;;;11.67;82.61
69411;BME280;56604;48.652;9.194;2024-03-22T06:33:48;96668.53;;;12.31;78.75
69411;BME280;56604;48.652;9.194;2024-03-22T06:36:13;96665.81;;;12.86;75.30
69411;BME280;56604;48.652;9.194;2024-03-22T06:38:38;96668.91;;;13.10;74.75
69411;BME280;56604;48.652;9.194;2024-03-22T06:41:04;96676.97;;;12.93;74.62
69411;BME280;56604;48.652;9.194;2024-03-22T06:43:29;96674.13;;;12.99;74.36
69411;BME280;56604;48.652;9.194;2024-03-22T06:45:55;96668.44;;;13.23;73.90
69411;BME280;56604;48.652;9.194;2024-03-22T06:48:20;96663.38;;;13.54;72.98
69411;BME280;56604;48.652;9.194;2024-03-22T06:50:45;96663.03;;;13.98;71.03
69411;BME280;56604;48.652;9.194;2024-03-22T06:53:11;96664.91;;;14.07;69.82
69411;BME280;56604;48.652;9.194;2024-03-22T06:55:37;96662.66;;;14.72;67.94
69411;BME280;56604;48.652;9.194;2024-03-22T06:58:02;96663.44;;;14.83;65.80
69411;BME280;56604;48.652;9.194;2024-03-22T07:00:27;96666.63;;;15.00;65.37
69411;BME280;56604;48.652;9.194;2024-03-22T07:02:53;96671.09;;;15.25;63.75
69411;BME280;56604;48.652;9.194;2024-03-22T07:05:20;96659.91;;;15.39;63.47
69411;BME280;56604;48.652;9.194;2024-03-22T07:07:47;96662.34;;;15.20;63.55
69411;BME280;56604;48.652;9.194;2024-03-22T07:10:12;96663.03;;;15.71;62.97
69411;BME280;56604;48.652;9.194;2024-03-22T07:12:37;96660.63;;;16.25;60.55
69411;BME280;56604;48.652;9.194;2024-03-22T07:15:03;96662.09;;;16.51;59.01
69411;BME280;56604;48.652;9.194;2024-03-22T07:17:29;96663.63;;;16.57;59.74
69411;BME280;56604;48.652;9.194;2024-03-22T07:19:55;96656.66;;;16.67;58.03
69411;BME280;56604;48.652;9.194;2024-03-22T07:22:21;96664.47;;;17.45;56.39
69411;BME280;56604;48.652;9.194;2024-03-22T07:24:47;96657.91;;;17.62;54.87
69411;BME280;56604;48.652;9.194;2024-03-22T07:27:12;96650.66;;;17.91;52.46
69411;BME280;56604;48.652;9.194;2024-03-22T07:29:39;96649.47;;;18.03;51.78
69411;BME280;56604;48.652;9.194;2024-03-22T07:32:05;96653.63;;;18.47;50.96
69411;BME280;56604;48.652;9.194;2024-03-22T07:34:31;96653.78;;;18.36;51.21
69411;BME280;56604;48.652;9.194;2024-03-22T07:36:57;96653.25;;;18.15;51.36
69411;BME280;56604;48.652;9.194;2024-03-22T07:39:22;96657.38;;;18.08;51.48
69411;BME280;56604;48.652;9.194;2024-03-22T07:41:49;96660.25;;;18.68;50.18
69411;BME280;56604;48.652;9.194;2024-03-22T07:44:14;96653.88;;;19.02;49.25
69411;BME280;56604;48.652;9.194;2024-03-22T07:46:39;96654.44;;;18.47;48.05
69411;BME280;56604;48.652;9.194;2024-03-22T07:49:05;96648.69;;;18.92;49.62
69411;BME280;56604;48.652;9.194;2024-03-22T07:51:30;96650.53;;;19.10;48.00
69411;BME280;56604;48.652;9.194;2024-03-22T07:53:56;96652.31;;;18.63;49.55
69411;BME280;56604;48.652;9.194;2024-03-22T07:56:21;96647.56;;;18.60;49.02
69411;BME280;56604;48.652;9.194;2024-03-22T07:58:47;96645.78;;;19.07;48.15
69411;BME280;56604;48.652;9.194;2024-03-22T08:01:12;96644.41;;;19.23;47.81
69411;BME280;56604;48.652;9.194;2024-03-22T08:03:37;96655.19;;;19.18;48.82
69411;BME280;56604;48.652;9.194;2024-03-22T08:06:03;96644.25;;;19.75;46.89
69411;BME280;56604;48.652;9.194;2024-03-22T08:08:29;96641.59;;;19.61;47.32
69411;BME280;56604;48.652;9.194;2024-03-22T08:10:55;96650.59;;;19.93;46.87
69411;BME280;56604;48.652;9.194;2024-03-22T08:13:20;96653.44;;;19.41;47.55
69411;BME280;56604;48.652;9.194;2024-03-22T08:15:45;96648.97;;;19.92;46.52
69411;BME280;56604;48.652;9.194;2024-03-22T08:18:11;96651.75;;;19.59;47.16
69411;BME280;56604;48.652;9.194;2024-03-22T08:20:37;96649.72;;;20.20;45.78
69411;BME280;56604;48.652;9.194;2024-03-22T08:23:04;96652.91;;;20.08;46.64
69411;BME280;56604;48.652;9.194;2024-03-22T08:25:29;96646.19;;;20.61;44.54
69411;BME280;56604;48.652;9.194;2024-03-22T08:27:55;96654.47;;;20.09;47.04
69411;BME280;56604;48.652;9.194;2024-03-22T08:30:21;96648.41;;;20.67;44.01
69411;BME280;56604;48.652;9.194;2024-03-22T08:32:47;96639.19;;;20.74;45.10
69411;BME280;56604;48.652;9.194;2024-03-22T08:35:13;96643.91;;;20.54;44.28
69411;BME280;56604;48.652;9.194;2024-03-22T08:37:38;96640.53;;;20.49;45.07
69411;BME280;56604;48.652;9.194;2024-03-22T08:40:04;96638.09;;;20.02;45.00
69411;BME280;56604;48.652;9.194;2024-03-22T08:42:30;96632.25;;;20.95;44.88
69411;BME280;56604;48.652;9.194;2024-03-22T08:44:55;96631.47;;;21.66;43.20
69411;BME280;56604;48.652;9.194;2024-03-22T08:47:20;96625.50;;;21.69;42.31
69411;BME280;56604;48.652;9.194;2024-03-22T08:49:45;96628.50;;;21.76;42.39
69411;BME280;56604;48.652;9.194;2024-03-22T08:52:11;96616.31;;;22.62;40.87
69411;BME280;56604;48.652;9.194;2024-03-22T08:54:37;96612.16;;;21.86;42.79
69411;BME280;56604;48.652;9.194;2024-03-22T08:57:03;96614.44;;;22.36;39.93
69411;BME280;56604;48.652;9.194;2024-03-22T08:59:28;96611.25;;;22.69;40.45
69411;BME280;56604;48.652;9.194;2024-03-22T09:01:53;96611.63;;;23.23;39.90
69411;BME280;56604;48.652;9.194;2024-03-22T09:04:19;96614.75;;;23.64;39.02
69411;BME280;56604;48.652;9.194;2024-03-22T09:06:45;96602.56;;;23.96;38.12
69411;BME280;56604;48.652;9.194;2024-03-22T09:09:11;96606.22;;;23.70;37.51
69411;BME280;56604;48.652;9.194;2024-03-22T09:11:36;96593.81;;;24.50;35.99
69411;BME280;56604;48.652;9.194;2024-03-22T09:14:02;96608.03;;;23.02;39.01
69411;BME280;56604;48.652;9.194;2024-03-22T09:16:27;96602.69;;;23.02;39.21
69411;BME280;56604;48.652;9.194;2024-03-22T09:18:53;96604.19;;;22.47;40.29
69411;BME280;56604;48.652;9.194;2024-03-22T09:21:18;96605.50;;;23.52;38.44
69411;BME280;56604;48.652;9.194;2024-03-22T09:23:43;96596.16;;;24.09;38.19
69411;BME280;56604;48.652;9.194;2024-03-22T09:26:08;96590.56;;;23.43;38.45
69411;BME280;56604;48.652;9.194;2024-03-22T09:28:34;96586.09;;;24.06;37.44
69411;BME280;56604;48.652;9.194;2024-03-22T09:31:06;96585.50;;;22.94;37.82
69411;BME280;56604;48.652;9.194;2024-03-22T09:33:35;96581.47;;;21.92;39.75
69411;BME280;56604;48.652;9.194;2024-03-22T09:36:01;96582.53;;;20.94;41.30
69411;BME280;56604;48.652;9.194;2024-03-22T09:38:27;96565.69;;;21.25;39.05
69411;BME280;56604;48.652;9.194;2024-03-22T09:40:55;96568.88;;;20.64;40.95
69411;BME280;56604;48.652;9.194;2024-03-22T09:43:21;96562.09;;;21.29;40.83
69411;BME280;56604;48.652;9.194;2024-03-22T09:45:47;96559.03;;;21.53;39.25
69411;BME280;56604;48.652;9.194;2024-03-22T09:48:16;96562.47;;;22.84;36.74
69411;BME280;56604;48.652;9.194;2024-03-22T09:50:42;96560.03;;;22.53;36.29
69411;BME280;56604;48.652;9.194;2024-03-22T09:53:09;96554.22;;;21.90;37.49
69411;BME280;56604;48.652;9.194;2024-03-22T09:55:36;96558.31;;;22.14;35.12
69411;BME280;56604;48.652;9.194;2024-03-22T09:58:02;96553.78;;;22.32;35.02
69411;BME280;56604;48.652;9.194;2024-03-22T10:00:27;96550.28;;;22.49;34.34
69411;BME280;56604;48.652;9.194;2024-03-22T10:02:53;96551.34;;;21.12;37.26
69411;BME280;56604;48.652;9.194;2024-03-22T10:05:19;96538.44;;;21.71;37.21
69411;BME280;56604;48.652;9.194;2024-03-22T10:07:45;96540.50;;;22.44;36.21
69411;BME280;56604;48.652;9.194;2024-03-22T10:10:11;96537.41;;;20.93;35.95
69411;BME280;56604;48.652;9.194;2024-03-22T10:12:37;96524.28;;;22.06;36.70
69411;BME280;56604;48.652;9.194;2024-03-22T10:15:05;96520.56;;;22.71;36.22
69411;BME280;56604;48.652;9.194;2024-03-22T10:17:31;96520.63;;;21.41;38.38
69411;BME280;56604;48.652;9.194;2024-03-22T10:19:56;96516.03;;;22.63;36.86
69411;BME280;56604;48.652;9.194;2024-03-22T10:22:21;96526.97;;;22.40;35.34
69411;BME280;56604;48.652;9.194;2024-03-22T10:24:47;96508.88;;;22.29;36.39
69411;BME280;56604;48.652;9.194;2024-03-22T10:27:13;96509.25;;;22.65;35.35
69411;BME280;56604;48.652;9.194;2024-03-22T10:29:39;96509.19;;;21.92;36.36
69411;BME280;56604;48.652;9.194;2024-03-22T10:32:05;96506.94;;;21.77;37.89
69411;BME280;56604;48.652;9.194;2024-03-22T10:34:32;96504.28;;;22.38;36.07
69411;BME280;56604;48.652;9.194;2024-03-22T10:37:00;96503.50;;;22.02;36.85
69411;BME280;56604;48.652;9.194;2024-03-22T10:39:26;96499.09;;;22.24;36.74
69411;BME280;56604;48.652;9.194;2024-03-22T10:41:51;96495.53;;;22.67;37.26
69411;BME280;56604;48.652;9.194;2024-03-22T10:44:17;96488.16;;;22.94;35.68
69411;BME280;56604;48.652;9.194;2024-03-22T10:46:48;96485.53;;;22.29;35.92
69411;BME280;56604;48.652;9.194;2024-03-22T10:49:19;96478.16;;;22.73;35.57
69411;BME280;56604;48.652;9.194;2024-03-22T10:51:49;96477.00;;;22.44;34.97
69411;BME280;56604;48.652;9.194;2024-03-22T10:54:19;96470.75;;;21.88;36.05
69411;BME280;56604;48.652;9.194;2024-03-22T10:56:45;96462.34;;;20.72;37.51
69411;BME280;56604;48.652;9.194;2024-03-22T10:59:18;96459.59;;;21.69;37.17
69411;BME280;56604;48.652;9.194;2024-03-22T11:01:51;96460.81;;;22.06;35.73
69411;BME280;56604;48.652;9.194;2024-03-22T11:04:17;96457.53;;;21.83;37.16
69411;BME280;56604;48.652;9.194;2024-03-22T11:06:49;96448.34;;;22.10;37.47
69411;BME280;56604;48.652;9.194;2024-03-22T11:09:22;96451.72;;;21.72;38.10
69411;BME280;56604;48.652;9.194;2024-03-22T11:11:48;96454.22;;;21.86;37.53
69411;BME280;56604;48.652;9.194;2024-03-22T11:14:14;96447.34;;;21.02;38.48
69411;BME280;56604;48.652;9.194;2024-03-22T11:16:43;96441.91;;;20.67;39.47
69411;BME280;56604;48.652;9.194;2024-03-22T11:19:09;96436.66;;;21.10;40.20
69411;BME280;56604;48.652;9.194;2024-03-22T11:21:34;96430.44;;;21.76;37.33
69411;BME280;56604;48.652;9.194;2024-03-22T11:24:04;96431.13;;;20.18;38.65
69411;BME280;56604;48.652;9.194;2024-03-22T11:26:31;96430.34;;;20.89;37.09
69411;BME280;56604;48.652;9.194;2024-03-22T11:28:57;96423.34;;;20.71;39.12
69411;BME280;56604;48.652;9.194;2024-03-22T11:31:22;96418.00;;;21.45;37.98
69411;BME280;56604;48.652;9.194;2024-03-22T11:33:52;96416.06;;;21.11;38.87
69411;BME280;56604;48.652;9.194;2024-03-22T11:36:18;96418.69;;;20.85;39.53
69411;BME280;56604;48.652;9.194;2024-03-22T11:38:43;96405.69;;;21.09;38.04
69411;BME280;56604;48.652;9.194;2024-03-22T11:41:08;96407.25;;;21.02;36.77
69411;BME280;56604;48.652;9.194;2024-03-22T11:43:34;96399.41;;;21.23;37.60
69411;BME280;56604;48.652;9.194;2024-03-22T11:46:00;96401.97;;;21.63;37.33
69411;BME280;56604;48.652;9.194;2024-03-22T11:48:28;96399.09;;;21.24;37.86
69411;BME280;56604;48.652;9.194;2024-03-22T11:50:53;96390.28;;;21.06;37.08
69411;BME280;56604;48.652;9.194;2024-03-22T11:53:21;96385.38;;;21.08;37.67
69411;BME280;56604;48.652;9.194;2024-03-22T11:55:46;96381.66;;;21.27;38.21
69411;BME280;56604;48.652;9.194;2024-03-22T11:58:11;96380.72;;;21.58;38.45
69411;BME280;56604;48.652;9.194;2024-03-22T12:00:38;96382.13;;;21.64;36.97
69411;BME280;56604;48.652;9.194;2024-03-22T12:03:06;96381.53;;;20.35;38.80
69411;BME280;56604;48.652;9.194;2024-03-22T12:05:31;96369.53;;;21.29;38.30
69411;BME280;56604;48.652;9.194;2024-03-22T12:07:57;96368.56;;;21.34;40.24
69411;BME280;56604;48.652;9.194;2024-03-22T12:10:22;96365.88;;;20.99;39.10
69411;BME280;56604;48.652;9.194;2024-03-22T12:12:47;96366.22;;;21.06;39.59
69411;BME280;56604;48.652;9.194;2024-03-22T12:15:13;96354.41;;;20.99;39.51
69411;BME280;56604;48.652;9.194;2024-03-22T12:17:38;96353.03;;;21.53;39.97
69411;BME280;56604;48.652;9.194;2024-03-22T12:20:08;96353.63;;;21.16;38.93
69411;BME280;56604;48.652;9.194;2024-03-22T12:22:34;96339.00;;;21.30;38.63
69411;BME280;56604;48.652;9.194;2024-03-22T12:24:59;96341.72;;;21.39;38.39
69411;BME280;56604;48.652;9.194;2024-03-22T12:27:25;96338.25;;;21.47;38.55
69411;BME280;56604;48.652;9.194;2024-03-22T12:29:50;96330.75;;;21.88;38.57
69411;BME280;56604;48.652;9.194;2024-03-22T12:32:15;96322.00;;;21.61;38.83
69411;BME280;56604;48.652;9.194;2024-03-22T12:34:40;96324.22;;;20.81;38.67
69411;BME280;56604;48.652;9.194;2024-03-22T12:37:06;96313.53;;;20.81;39.46
69411;BME280;56604;48.652;9.194;2024-03-22T12:39:32;96316.50;;;20.88;39.26
69411;BME280;56604;48.652;9.194;2024-03-22T12:41:57;96300.94;;;20.73;39.33
69411;BME280;56604;48.652;9.194;2024-03-22T12:44:23;96298.91;;;20.87;38.95
69411;BME280;56604;48.652;9.194;2024-03-22T12:46:48;96295.56;;;20.55;39.67
69411;BME280;56604;48.652;9.194;2024-03-22T12:49:16;96288.22;;;20.78;40.12
69411;BME280;56604;48.652;9.194;2024-03-22T12:51:41;96286.31;;;20.87;38.93
69411;BME280;56604;48.652;9.194;2024-03-22T12:54:07;96279.56;;;20.81;39.66